sensor_id;sensor_type;location;lat;lon;timestamp;P1;durP1;ratioP1;P2;durP2;ratioP2
5026;SDS011;2532;52.480;13.354;2024-03-22T00:02:06;19.70;;;13.20;;
5026;SDS011;2532;52.480;13.354;2024-03-22T00:04:34;18.70;;;13.13;;
5026;SDS011;2532;52.480;13.354;2024-03-22T00:07:00;17.80;;;11.50;;
5026;SDS011;2532;52.480;13.354;2024-03-22T00:09:28;19.10;;;12.80;;
5026;SDS011;2532;52.480;13.354;2024-03-22T00:11:54;19.47;;;12.33;;
5026;SDS011;2532;52.480;13.354;2024-03-22T00:14:20;18.10;;;12.83;;
5026;SDS011;2532;52.480;13.354;2024-03-22T00:16:48;17.87;;;13.13;;
5026;SDS011;2532;52.480;13.354;2024-03-22T00:19:15;18.67;;;12.73;;
5026;SDS011;2532;52.480;13.354;2024-03-22T00:21:41;20.63;;;12.87;;
5026;SDS011;2532;52.480;13.354;2024-03-22T00:24:08;16.83;;;12.20;;
5026;SDS011;2532;52.480;13.354;2024-03-22T00:26:33;19.00;;;13.30;;
5026;SDS011;2532;52.480;13.354;2024-03-22T00:29:01;19.97;;;13.67;;
5026;SDS011;2532;52.480;13.354;2024-03-22T00:31:27;18.40;;;12.37;;
5026;SDS011;2532;52.480;13.354;2024-03-22T00:33:55;17.63;;;12.77;;
5026;SDS011;2532;52.480;13.354;2024-03-22T00:36:21;19.63;;;13.90;;
5026;SDS011;2532;52.480;13.354;2024-03-22T00:38:48;20.40;;;13.10;;
5026;SDS011;2532;52.480;13.354;2024-03-22T00:41:14;22.17;;;13.80;;
5026;SDS011;2532;52.480;13.354;2024-03-22T00:43:41;20.57;;;13.70;;
5026;SDS011;2532;52.480;13.354;2024-03-22T00:46:07;21.13;;;13.30;;
5026;SDS011;2532;52.480;13.354;2024-03-22T00:48:34;18.87;;;13.10;;
5026;SDS011;2532;52.480;13.354;2024-03-22T00:51:02;20.60;;;13.20;;
5026;SDS011;2532;52.480;13.354;2024-03-22T00:53:29;21.23;;;13.10;;
5026;SDS011;2532;52.480;13.354;2024-03-22T00:55:55;20.53;;;13.70;;
5026;SDS011;2532;52.480;13.354;2024-03-22T00:58:24;22.83;;;14.20;;
5026;SDS011;2532;52.480;13.354;2024-03-22T01:00:51;21.90;;;12.97;;
5026;SDS011;2532;52.480;13.354;2024-03-22T01:03:18;21.30;;;13.40;;
5026;SDS011;2532;52.480;13.354;2024-03-22T01:05:44;23.67;;;14.07;;
5026;SDS011;2532;52.480;13.354;2024-03-22T01:08:13;22.80;;;13.37;;
5026;SDS011;2532;52.480;13.354;2024-03-22T01:10:39;21.13;;;14.13;;
5026;SDS011;2532;52.480;13.354;2024-03-22T01:13:06;18.80;;;12.87;;
5026;SDS011;2532;52.480;13.354;2024-03-22T01:15:33;25.70;;;14.50;;
5026;SDS011;2532;52.480;13.354;2024-03-22T01:18:03;21.03;;;14.00;;
5026;SDS011;2532;52.480;13.354;2024-03-22T01:20:35;21.73;;;13.37;;
5026;SDS011;2532;52.480;13.354;2024-03-22T01:23:02;22.13;;;14.87;;
5026;SDS011;2532;52.480;13.354;2024-03-22T01:25:30;22.70;;;14.23;;
5026;SDS011;2532;52.480;13.354;2024-03-22T01:27:57;21.20;;;13.90;;
5026;SDS011;2532;52.480;13.354;2024-03-22T01:30:23;20.63;;;13.23;;
5026;SDS011;2532;52.480;13.354;2024-03-22T01:32:53;24.03;;;14.10;;
5026;SDS011;2532;52.480;13.354;2024-03-22T01:35:19;23.07;;;14.23;;
5026;SDS011;2532;52.480;13.354;2024-03-22T01:37:46;22.07;;;14.00;;
5026;SDS011;2532;52.480;13.354;2024-03-22T01:40:12;23.13;;;15.30;;
5026;SDS011;2532;52.480;13.354;2024-03-22T01:42:41;24.57;;;16.40;;
5026;SDS011;2532;52.480;13.354;2024-03-22T01:45:07;34.07;;;15.70;;
5026;SDS011;2532;52.480;13.354;2024-03-22T01:47:34;26.57;;;16.30;;
5026;SDS011;2532;52.480;13.354;2024-03-22T01:50:00;24.30;;;14.90;;
5026;SDS011;2532;52.480;13.354;2024-03-22T01:52:28;22.20;;;14.40;;
5026;SDS011;2532;52.480;13.354;2024-03-22T01:54:54;27.10;;;14.50;;
5026;SDS011;2532;52.480;13.354;2024-03-22T01:57:21;24.00;;;14.97;;
5026;SDS011;2532;52.480;13.354;2024-03-22T01:59:49;28.33;;;15.63;;
5026;SDS011;2532;52.480;13.354;2024-03-22T02:02:20;22.63;;;13.47;;
5026;SDS011;2532;52.480;13.354;2024-03-22T02:04:46;24.07;;;13.83;;
5026;SDS011;2532;52.480;13.354;2024-03-22T02:07:17;26.93;;;15.53;;
5026;SDS011;2532;52.480;13.354;2024-03-22T02:09:43;24.00;;;14.80;;
5026;SDS011;2532;52.480;13.354;2024-03-22T02:12:10;23.73;;;15.10;;
5026;SDS011;2532;52.480;13.354;2024-03-22T02:14:36;24.10;;;14.77;;
5026;SDS011;2532;52.480;13.354;2024-03-22T02:17:05;23.83;;;14.60;;
5026;SDS011;2532;52.480;13.354;2024-03-22T02:19:31;28.37;;;15.60;;
5026;SDS011;2532;52.480;13.354;2024-03-22T02:21:58;22.90;;;14.53;;
5026;SDS011;2532;52.480;13.354;2024-03-22T02:24:25;21.87;;;13.47;;
5026;SDS011;2532;52.480;13.354;2024-03-22T02:26:52;25.73;;;14.73;;
5026;SDS011;2532;52.480;13.354;2024-03-22T02:29:18;22.20;;;13.50;;
5026;SDS011;2532;52.480;13.354;2024-03-22T02:31:45;21.00;;;13.80;;
5026;SDS011;2532;52.480;13.354;2024-03-22T02:34:11;22.53;;;14.60;;
5026;SDS011;2532;52.480;13.354;2024-03-22T02:36:38;22.43;;;14.50;;
5026;SDS011;2532;52.480;13.354;2024-03-22T02:39:04;24.00;;;14.17;;
5026;SDS011;2532;52.480;13.354;2024-03-22T02:41:33;22.00;;;14.00;;
5026;SDS011;2532;52.480;13.354;2024-03-22T02:43:59;27.13;;;15.30;;
5026;SDS011;2532;52.480;13.354;2024-03-22T02:46:26;23.90;;;14.87;;
5026;SDS011;2532;52.480;13.354;2024-03-22T02:48:51;25.63;;;14.67;;
5026;SDS011;2532;52.480;13.354;2024-03-22T02:51:18;22.70;;;13.23;;
5026;SDS011;2532;52.480;13.354;2024-03-22T02:53:44;22.43;;;14.03;;
5026;SDS011;2532;52.480;13.354;2024-03-22T02:56:11;23.70;;;14.07;;
5026;SDS011;2532;52.480;13.354;2024-03-22T02:58:38;25.40;;;14.77;;
5026;SDS011;2532;52.480;13.354;2024-03-22T03:01:05;28.53;;;15.70;;
5026;SDS011;2532;52.480;13.354;2024-03-22T03:03:31;25.17;;;14.80;;
5026;SDS011;2532;52.480;13.354;2024-03-22T03:05:58;23.50;;;14.23;;
5026;SDS011;2532;52.480;13.354;2024-03-22T03:08:24;22.47;;;14.43;;
5026;SDS011;2532;52.480;13.354;2024-03-22T03:10:51;22.43;;;14.03;;
5026;SDS011;2532;52.480;13.354;2024-03-22T03:13:18;25.50;;;13.50;;
5026;SDS011;2532;52.480;13.354;2024-03-22T03:15:46;21.60;;;13.00;;
5026;SDS011;2532;52.480;13.354;2024-03-22T03:18:12;23.23;;;13.77;;
5026;SDS011;2532;52.480;13.354;2024-03-22T03:20:39;20.03;;;13.60;;
5026;SDS011;2532;52.480;13.354;2024-03-22T03:23:05;24.30;;;13.23;;
5026;SDS011;2532;52.480;13.354;2024-03-22T03:25:32;21.30;;;12.90;;
5026;SDS011;2532;52.480;13.354;2024-03-22T03:27:58;19.77;;;11.87;;
5026;SDS011;2532;52.480;13.354;2024-03-22T03:30:25;24.37;;;13.57;;
5026;SDS011;2532;52.480;13.354;2024-03-22T03:32:52;22.83;;;13.73;;
5026;SDS011;2532;52.480;13.354;2024-03-22T03:35:19;19.80;;;12.40;;
5026;SDS011;2532;52.480;13.354;2024-03-22T03:37:45;23.20;;;13.07;;
5026;SDS011;2532;52.480;13.354;2024-03-22T03:40:12;24.30;;;14.17;;
5026;SDS011;2532;52.480;13.354;2024-03-22T03:42:38;23.43;;;12.73;;
5026;SDS011;2532;52.480;13.354;2024-03-22T03:45:06;20.13;;;12.17;;
5026;SDS011;2532;52.480;13.354;2024-03-22T03:47:32;22.60;;;12.47;;
5026;SDS011;2532;52.480;13.354;2024-03-22T03:50:00;23.80;;;13.37;;
5026;SDS011;2532;52.480;13.354;2024-03-22T03:52:27;21.77;;;12.57;;
5026;SDS011;2532;52.480;13.354;2024-03-22T03:54:54;23.57;;;12.87;;
5026;SDS011;2532;52.480;13.354;2024-03-22T03:57:20;23.33;;;13.43;;
5026;SDS011;2532;52.480;13.354;2024-03-22T03:59:47;20.60;;;11.60;;
5026;SDS011;2532;52.480;13.354;2024-03-22T04:02:13;20.50;;;12.40;;
5026;SDS011;2532;52.480;13.354;2024-03-22T04:04:39;20.40;;;11.90;;
5026;SDS011;2532;52.480;13.354;2024-03-22T04:07:07;23.70;;;13.50;;
5026;SDS011;2532;52.480;13.354;2024-03-22T04:09:34;20.27;;;12.33;;
5026;SDS011;2532;52.480;13.354;2024-03-22T04:12:00;24.07;;;13.23;;
5026;SDS011;2532;52.480;13.354;2024-03-22T04:14:27;23.60;;;13.10;;
5026;SDS011;2532;52.480;13.354;2024-03-22T04:16:52;23.97;;;12.20;;
5026;SDS011;2532;52.480;13.354;2024-03-22T04:19:21;24.70;;;12.83;;
5026;SDS011;2532;52.480;13.354;2024-03-22T04:21:47;22.20;;;12.43;;
5026;SDS011;2532;52.480;13.354;2024-03-22T04:24:17;23.90;;;11.00;;
5026;SDS011;2532;52.480;13.354;2024-03-22T04:26:43;22.23;;;12.93;;
5026;SDS011;2532;52.480;13.354;2024-03-22T04:29:10;18.70;;;11.03;;
5026;SDS011;2532;52.480;13.354;2024-03-22T04:31:36;21.13;;;13.03;;
5026;SDS011;2532;52.480;13.354;2024-03-22T04:34:02;20.50;;;11.90;;
5026;SDS011;2532;52.480;13.354;2024-03-22T04:36:30;25.27;;;12.00;;
5026;SDS011;2532;52.480;13.354;2024-03-22T04:38:58;24.33;;;12.27;;
5026;SDS011;2532;52.480;13.354;2024-03-22T04:41:26;20.80;;;11.83;;
5026;SDS011;2532;52.480;13.354;2024-03-22T04:43:53;21.17;;;12.03;;
5026;SDS011;2532;52.480;13.354;2024-03-22T04:46:20;19.40;;;11.70;;
5026;SDS011;2532;52.480;13.354;2024-03-22T04:48:46;21.00;;;11.67;;
5026;SDS011;2532;52.480;13.354;2024-03-22T04:51:13;20.90;;;12.40;;
5026;SDS011;2532;52.480;13.354;2024-03-22T04:53:39;20.20;;;11.33;;
5026;SDS011;2532;52.480;13.354;2024-03-22T04:56:06;20.20;;;11.50;;
5026;SDS011;2532;52.480;13.354;2024-03-22T04:58:34;17.30;;;10.43;;
5026;SDS011;2532;52.480;13.354;2024-03-22T05:01:00;19.03;;;11.60;;
5026;SDS011;2532;52.480;13.354;2024-03-22T05:03:26;21.57;;;13.37;;
5026;SDS011;2532;52.480;13.354;2024-03-22T05:05:53;19.83;;;12.20;;
5026;SDS011;2532;52.480;13.354;2024-03-22T05:08:20;19.37;;;10.97;;
5026;SDS011;2532;52.480;13.354;2024-03-22T05:10:47;19.53;;;11.90;;
5026;SDS011;2532;52.480;13.354;2024-03-22T05:13:13;20.73;;;12.30;;
5026;SDS011;2532;52.480;13.354;2024-03-22T05:15:41;24.57;;;12.50;;
5026;SDS011;2532;52.480;13.354;2024-03-22T05:18:07;22.47;;;11.93;;
5026;SDS011;2532;52.480;13.354;2024-03-22T05:20:34;22.93;;;12.70;;
5026;SDS011;2532;52.480;13.354;2024-03-22T05:23:00;20.13;;;12.20;;
5026;SDS011;2532;52.480;13.354;2024-03-22T05:25:27;19.57;;;11.53;;
5026;SDS011;2532;52.480;13.354;2024-03-22T05:27:53;21.40;;;11.20;;
5026;SDS011;2532;52.480;13.354;2024-03-22T05:30:20;22.67;;;11.90;;
5026;SDS011;2532;52.480;13.354;2024-03-22T05:32:47;23.93;;;14.30;;
5026;SDS011;2532;52.480;13.354;2024-03-22T05:35:15;26.53;;;12.47;;
5026;SDS011;2532;52.480;13.354;2024-03-22T05:37:41;22.00;;;11.97;;
5026;SDS011;2532;52.480;13.354;2024-03-22T05:40:08;24.77;;;13.50;;
5026;SDS011;2532;52.480;13.354;2024-03-22T05:42:35;24.27;;;13.10;;
5026;SDS011;2532;52.480;13.354;2024-03-22T05:45:02;24.57;;;14.23;;
5026;SDS011;2532;52.480;13.354;2024-03-22T05:47:29;21.57;;;13.00;;
5026;SDS011;2532;52.480;13.354;2024-03-22T05:49:58;22.80;;;13.60;;
5026;SDS011;2532;52.480;13.354;2024-03-22T05:52:24;22.07;;;13.43;;
5026;SDS011;2532;52.480;13.354;2024-03-22T05:54:51;22.50;;;12.73;;
5026;SDS011;2532;52.480;13.354;2024-03-22T05:57:17;28.23;;;13.80;;
5026;SDS011;2532;52.480;13.354;2024-03-22T05:59:44;27.17;;;15.47;;
5026;SDS011;2532;52.480;13.354;2024-03-22T06:02:10;28.53;;;14.50;;
5026;SDS011;2532;52.480;13.354;2024-03-22T06:04:38;22.77;;;12.60;;
5026;SDS011;2532;52.480;13.354;2024-03-22T06:07:05;22.87;;;13.10;;
5026;SDS011;2532;52.480;13.354;2024-03-22T06:09:32;22.67;;;14.23;;
5026;SDS011;2532;52.480;13.354;2024-03-22T06:12:03;22.80;;;13.00;;
5026;SDS011;2532;52.480;13.354;2024-03-22T06:14:31;21.73;;;13.07;;
5026;SDS011;2532;52.480;13.354;2024-03-22T06:16:57;24.10;;;12.97;;
5026;SDS011;2532;52.480;13.354;2024-03-22T06:19:24;22.17;;;13.30;;
5026;SDS011;2532;52.480;13.354;2024-03-22T06:21:50;23.23;;;12.80;;
5026;SDS011;2532;52.480;13.354;2024-03-22T06:24:18;22.00;;;13.10;;
5026;SDS011;2532;52.480;13.354;2024-03-22T06:26:44;23.00;;;12.60;;
5026;SDS011;2532;52.480;13.354;2024-03-22T06:29:11;23.27;;;12.87;;
5026;SDS011;2532;52.480;13.354;2024-03-22T06:31:37;26.93;;;14.87;;
5026;SDS011;2532;52.480;13.354;2024-03-22T06:34:04;27.63;;;12.97;;
5026;SDS011;2532;52.480;13.354;2024-03-22T06:36:31;28.93;;;15.03;;
5026;SDS011;2532;52.480;13.354;2024-03-22T06:38:58;25.00;;;13.37;;
5026;SDS011;2532;52.480;13.354;2024-03-22T06:41:25;22.83;;;13.80;;
5026;SDS011;2532;52.480;13.354;2024-03-22T06:43:54;21.70;;;13.87;;
5026;SDS011;2532;52.480;13.354;2024-03-22T06:46:20;26.50;;;13.63;;
5026;SDS011;2532;52.480;13.354;2024-03-22T06:48:48;24.10;;;14.63;;
5026;SDS011;2532;52.480;13.354;2024-03-22T06:51:14;24.90;;;14.37;;
5026;SDS011;2532;52.480;13.354;2024-03-22T06:53:41;23.50;;;14.37;;
5026;SDS011;2532;52.480;13.354;2024-03-22T06:56:06;24.50;;;14.53;;
5026;SDS011;2532;52.480;13.354;2024-03-22T06:58:38;26.30;;;14.67;;
5026;SDS011;2532;52.480;13.354;2024-03-22T07:01:04;23.93;;;14.17;;
5026;SDS011;2532;52.480;13.354;2024-03-22T07:03:31;29.50;;;14.53;;
5026;SDS011;2532;52.480;13.354;2024-03-22T07:05:57;24.57;;;14.50;;
5026;SDS011;2532;52.480;13.354;2024-03-22T07:08:24;25.70;;;15.07;;
5026;SDS011;2532;52.480;13.354;2024-03-22T07:10:50;26.87;;;15.87;;
5026;SDS011;2532;52.480;13.354;2024-03-22T07:13:18;25.67;;;14.63;;
5026;SDS011;2532;52.480;13.354;2024-03-22T07:15:45;24.97;;;15.07;;
5026;SDS011;2532;52.480;13.354;2024-03-22T07:18:12;25.97;;;15.00;;
5026;SDS011;2532;52.480;13.354;2024-03-22T07:20:38;24.80;;;15.60;;
5026;SDS011;2532;52.480;13.354;2024-03-22T07:23:05;30.27;;;15.57;;
5026;SDS011;2532;52.480;13.354;2024-03-22T07:25:31;24.97;;;16.37;;
5026;SDS011;2532;52.480;13.354;2024-03-22T07:27:58;29.20;;;15.73;;
5026;SDS011;2532;52.480;13.354;2024-03-22T07:30:24;30.43;;;17.47;;
5026;SDS011;2532;52.480;13.354;2024-03-22T07:32:52;26.00;;;16.17;;
5026;SDS011;2532;52.480;13.354;2024-03-22T07:35:18;26.63;;;16.40;;
5026;SDS011;2532;52.480;13.354;2024-03-22T07:37:45;27.37;;;15.60;;
5026;SDS011;2532;52.480;13.354;2024-03-22T07:40:11;27.97;;;17.70;;
5026;SDS011;2532;52.480;13.354;2024-03-22T07:42:38;27.80;;;16.83;;
5026;SDS011;2532;52.480;13.354;2024-03-22T07:45:05;31.07;;;16.67;;
5026;SDS011;2532;52.480;13.354;2024-03-22T07:47:32;33.30;;;16.00;;
5026;SDS011;2532;52.480;13.354;2024-03-22T07:50:01;28.60;;;17.37;;
5026;SDS011;2532;52.480;13.354;2024-03-22T07:52:28;33.80;;;18.23;;
5026;SDS011;2532;52.480;13.354;2024-03-22T07:54:54;28.77;;;15.90;;
5026;SDS011;2532;52.480;13.354;2024-03-22T07:57:22;28.23;;;17.17;;
5026;SDS011;2532;52.480;13.354;2024-03-22T07:59:49;29.70;;;16.73;;
5026;SDS011;2532;52.480;13.354;2024-03-22T08:02:16;29.07;;;17.00;;
5026;SDS011;2532;52.480;13.354;2024-03-22T08:04:42;33.00;;;18.00;;
5026;SDS011;2532;52.480;13.354;2024-03-22T08:07:13;26.20;;;16.60;;
5026;SDS011;2532;52.480;13.354;2024-03-22T08:09:40;29.07;;;17.10;;
5026;SDS011;2532;52.480;13.354;2024-03-22T08:12:07;35.57;;;18.07;;
5026;SDS011;2532;52.480;13.354;2024-03-22T08:14:33;31.93;;;17.47;;
5026;SDS011;2532;52.480;13.354;2024-03-22T08:17:01;31.83;;;18.07;;
5026;SDS011;2532;52.480;13.354;2024-03-22T08:19:28;32.00;;;17.60;;
5026;SDS011;2532;52.480;13.354;2024-03-22T08:21:55;32.57;;;18.53;;
5026;SDS011;2532;52.480;13.354;2024-03-22T08:24:25;27.90;;;17.37;;
5026;SDS011;2532;52.480;13.354;2024-03-22T08:26:52;29.13;;;16.30;;
5026;SDS011;2532;52.480;13.354;2024-03-22T08:29:19;32.17;;;16.80;;
5026;SDS011;2532;52.480;13.354;2024-03-22T08:31:46;28.07;;;18.00;;
5026;SDS011;2532;52.480;13.354;2024-03-22T08:34:12;32.47;;;18.83;;
5026;SDS011;2532;52.480;13.354;2024-03-22T08:36:39;27.67;;;17.60;;
5026;SDS011;2532;52.480;13.354;2024-03-22T08:39:05;37.00;;;18.77;;
5026;SDS011;2532;52.480;13.354;2024-03-22T08:41:37;28.80;;;18.43;;
5026;SDS011;2532;52.480;13.354;2024-03-22T08:44:03;29.10;;;17.53;;
5026;SDS011;2532;52.480;13.354;2024-03-22T08:46:30;30.07;;;17.40;;
5026;SDS011;2532;52.480;13.354;2024-03-22T08:48:57;29.53;;;18.37;;
5026;SDS011;2532;52.480;13.354;2024-03-22T08:51:24;29.10;;;17.87;;
5026;SDS011;2532;52.480;13.354;2024-03-22T08:53:55;33.57;;;20.43;;
5026;SDS011;2532;52.480;13.354;2024-03-22T08:56:22;30.63;;;18.57;;
5026;SDS011;2532;52.480;13.354;2024-03-22T08:58:50;32.17;;;17.90;;
5026;SDS011;2532;52.480;13.354;2024-03-22T09:01:17;34.90;;;17.77;;
5026;SDS011;2532;52.480;13.354;2024-03-22T09:03:43;32.43;;;17.47;;
5026;SDS011;2532;52.480;13.354;2024-03-22T09:06:11;26.03;;;17.00;;
5026;SDS011;2532;52.480;13.354;2024-03-22T09:08:38;28.80;;;17.33;;
5026;SDS011;2532;52.480;13.354;2024-03-22T09:11:14;29.13;;;17.33;;
5026;SDS011;2532;52.480;13.354;2024-03-22T09:13:40;26.77;;;17.50;;
5026;SDS011;2532;52.480;13.354;2024-03-22T09:16:10;26.37;;;17.73;;
5026;SDS011;2532;52.480;13.354;2024-03-22T09:18:36;26.73;;;16.97;;
5026;SDS011;2532;52.480;13.354;2024-03-22T09:21:04;25.13;;;16.90;;
5026;SDS011;2532;52.480;13.354;2024-03-22T09:23:30;29.67;;;18.23;;
5026;SDS011;2532;52.480;13.354;2024-03-22T09:25:57;30.87;;;17.03;;
5026;SDS011;2532;52.480;13.354;2024-03-22T09:28:23;28.13;;;17.90;;
5026;SDS011;2532;52.480;13.354;2024-03-22T09:30:51;32.60;;;18.03;;
5026;SDS011;2532;52.480;13.354;2024-03-22T09:33:20;31.07;;;17.83;;
5026;SDS011;2532;52.480;13.354;2024-03-22T09:35:46;29.10;;;17.03;;
5026;SDS011;2532;52.480;13.354;2024-03-22T09:38:13;27.63;;;17.17;;
5026;SDS011;2532;52.480;13.354;2024-03-22T09:40:40;26.30;;;17.43;;
5026;SDS011;2532;52.480;13.354;2024-03-22T09:43:08;27.50;;;17.67;;
5026;SDS011;2532;52.480;13.354;2024-03-22T09:45:38;26.03;;;15.83;;
5026;SDS011;2532;52.480;13.354;2024-03-22T09:48:06;33.00;;;18.67;;
5026;SDS011;2532;52.480;13.354;2024-03-22T09:50:33;29.27;;;17.93;;
5026;SDS011;2532;52.480;13.354;2024-03-22T09:53:02;25.90;;;15.77;;
5026;SDS011;2532;52.480;13.354;2024-03-22T09:55:29;28.23;;;18.47;;
5026;SDS011;2532;52.480;13.354;2024-03-22T09:57:58;24.60;;;15.63;;
5026;SDS011;2532;52.480;13.354;2024-03-22T10:00:24;27.97;;;16.37;;
5026;SDS011;2532;52.480;13.354;2024-03-22T10:02:52;25.60;;;16.33;;
5026;SDS011;2532;52.480;13.354;2024-03-22T10:05:18;26.20;;;17.60;;
5026;SDS011;2532;52.480;13.354;2024-03-22T10:07:47;31.50;;;18.07;;
5026;SDS011;2532;52.480;13.354;2024-03-22T10:10:19;24.27;;;15.70;;
5026;SDS011;2532;52.480;13.354;2024-03-22T10:12:46;30.57;;;16.73;;
5026;SDS011;2532;52.480;13.354;2024-03-22T10:15:13;28.60;;;16.90;;
5026;SDS011;2532;52.480;13.354;2024-03-22T10:17:42;27.50;;;15.83;;
5026;SDS011;2532;52.480;13.354;2024-03-22T10:20:08;28.73;;;17.00;;
5026;SDS011;2532;52.480;13.354;2024-03-22T10:22:41;26.73;;;17.60;;
5026;SDS011;2532;52.480;13.354;2024-03-22T10:25:09;38.77;;;17.20;;
5026;SDS011;2532;52.480;13.354;2024-03-22T10:27:38;24.83;;;16.20;;
5026;SDS011;2532;52.480;13.354;2024-03-22T10:30:06;23.97;;;15.60;;
5026;SDS011;2532;52.480;13.354;2024-03-22T10:32:35;22.00;;;15.00;;
5026;SDS011;2532;52.480;13.354;2024-03-22T10:35:02;23.50;;;16.10;;
5026;SDS011;2532;52.480;13.354;2024-03-22T10:37:31;24.63;;;15.37;;
5026;SDS011;2532;52.480;13.354;2024-03-22T10:39:58;22.30;;;15.50;;
5026;SDS011;2532;52.480;13.354;2024-03-22T10:42:29;25.03;;;15.53;;
5026;SDS011;2532;52.480;13.354;2024-03-22T10:44:55;21.03;;;14.93;;
5026;SDS011;2532;52.480;13.354;2024-03-22T10:47:23;25.30;;;16.10;;
5026;SDS011;2532;52.480;13.354;2024-03-22T10:49:54;25.13;;;16.40;;
5026;SDS011;2532;52.480;13.354;2024-03-22T10:52:29;25.50;;;15.80;;
5026;SDS011;2532;52.480;13.354;2024-03-22T10:55:03;25.60;;;16.00;;
5026;SDS011;2532;52.480;13.354;2024-03-22T10:57:33;22.37;;;14.80;;
5026;SDS011;2532;52.480;13.354;2024-03-22T11:00:03;24.23;;;15.03;;
5026;SDS011;2532;52.480;13.354;2024-03-22T11:02:35;24.50;;;15.97;;
5026;SDS011;2532;52.480;13.354;2024-03-22T11:05:01;27.20;;;16.57;;
5026;SDS011;2532;52.480;13.354;2024-03-22T11:07:28;22.30;;;14.90;;
5026;SDS011;2532;52.480;13.354;2024-03-22T11:09:57;27.10;;;15.30;;
5026;SDS011;2532;52.480;13.354;2024-03-22T11:12:28;22.97;;;15.37;;
5026;SDS011;2532;52.480;13.354;2024-03-22T11:15:00;21.60;;;15.13;;
5026;SDS011;2532;52.480;13.354;2024-03-22T11:17:28;20.23;;;13.20;;
5026;SDS011;2532;52.480;13.354;2024-03-22T11:19:54;22.47;;;14.27;;
5026;SDS011;2532;52.480;13.354;2024-03-22T11:22:21;23.53;;;15.10;;
5026;SDS011;2532;52.480;13.354;2024-03-22T11:24:48;21.00;;;13.20;;
5026;SDS011;2532;52.480;13.354;2024-03-22T11:27:15;21.73;;;14.60;;
5026;SDS011;2532;52.480;13.354;2024-03-22T11:29:41;23.17;;;14.43;;
5026;SDS011;2532;52.480;13.354;2024-03-22T11:32:10;21.77;;;14.30;;
5026;SDS011;2532;52.480;13.354;2024-03-22T11:34:38;22.67;;;14.30;;
5026;SDS011;2532;52.480;13.354;2024-03-22T11:37:06;22.60;;;13.83;;
5026;SDS011;2532;52.480;13.354;2024-03-22T11:39:35;27.70;;;14.37;;
5026;SDS011;2532;52.480;13.354;2024-03-22T11:42:03;21.43;;;13.73;;
5026;SDS011;2532;52.480;13.354;2024-03-22T11:44:31;24.40;;;14.57;;
5026;SDS011;2532;52.480;13.354;2024-03-22T11:47:01;23.10;;;15.27;;
5026;SDS011;2532;52.480;13.354;2024-03-22T11:49:29;24.57;;;14.20;;
5026;SDS011;2532;52.480;13.354;2024-03-22T11:51:56;24.80;;;14.83;;
5026;SDS011;2532;52.480;13.354;2024-03-22T11:54:23;24.17;;;15.23;;
5026;SDS011;2532;52.480;13.354;2024-03-22T11:56:50;24.63;;;15.00;;
5026;SDS011;2532;52.480;13.354;2024-03-22T11:59:18;25.10;;;14.50;;
5026;SDS011;2532;52.480;13.354;2024-03-22T12:01:46;22.43;;;13.43;;
5026;SDS011;2532;52.480;13.354;2024-03-22T12:04:12;23.10;;;14.53;;
5026;SDS011;2532;52.480;13.354;2024-03-22T12:06:42;21.97;;;14.00;;
5026;SDS011;2532;52.480;13.354;2024-03-22T12:09:09;24.60;;;15.13;;
5026;SDS011;2532;52.480;13.354;2024-03-22T12:11:44;24.83;;;16.03;;
5026;SDS011;2532;52.480;13.354;2024-03-22T12:14:10;23.77;;;14.93;;
5026;SDS011;2532;52.480;13.354;2024-03-22T12:16:38;25.37;;;16.33;;
5026;SDS011;2532;52.480;13.354;2024-03-22T12:19:04;27.33;;;16.00;;
5026;SDS011;2532;52.480;13.354;2024-03-22T12:21:33;29.17;;;18.03;;
5026;SDS011;2532;52.480;13.354;2024-03-22T12:24:01;25.33;;;16.17;;
5026;SDS011;2532;52.480;13.354;2024-03-22T12:26:30;29.37;;;16.13;;
5026;SDS011;2532;52.480;13.354;2024-03-22T12:28:59;31.83;;;17.23;;
5026;SDS011;2532;52.480;13.354;2024-03-22T12:31:27;26.57;;;17.33;;
5026;SDS011;2532;52.480;13.354;2024-03-22T12:33:54;28.33;;;16.57;;
5026;SDS011;2532;52.480;13.354;2024-03-22T12:36:21;25.37;;;16.90;;
5026;SDS011;2532;52.480;13.354;2024-03-22T12:38:47;29.67;;;16.33;;
5026;SDS011;2532;52.480;13.354;2024-03-22T12:41:16;32.07;;;17.77;;
5026;SDS011;2532;52.480;13.354;2024-03-22T12:43:42;29.37;;;17.10;;
5026;SDS011;2532;52.480;13.354;2024-03-22T12:46:12;27.67;;;16.73;;
5026;SDS011;2532;52.480;13.354;2024-03-22T12:48:38;33.77;;;18.63;;
5026;SDS011;2532;52.480;13.354;2024-03-22T12:51:06;30.03;;;18.50;;
5026;SDS011;2532;52.480;13.354;2024-03-22T12:53:35;27.30;;;17.27;;
5026;SDS011;2532;52.480;13.354;2024-03-22T12:56:09;30.03;;;18.47;;
5026;SDS011;2532;52.480;13.354;2024-03-22T12:58:49;32.40;;;17.87;;
5026;SDS011;2532;52.480;13.354;2024-03-22T13:01:16;27.10;;;16.97;;
5026;SDS011;2532;52.480;13.354;2024-03-22T13:03:42;27.00;;;16.87;;
5026;SDS011;2532;52.480;13.354;2024-03-22T13:06:09;24.00;;;16.13;;
5026;SDS011;2532;52.480;13.354;2024-03-22T13:08:36;28.10;;;16.57;;
5026;SDS011;2532;52.480;13.354;2024-03-22T13:11:03;29.10;;;16.33;;
5026;SDS011;2532;52.480;13.354;2024-03-22T13:13:29;25.37;;;14.47;;
5026;SDS011;2532;52.480;13.354;2024-03-22T13:15:58;27.10;;;15.43;;
5026;SDS011;2532;52.480;13.354;2024-03-22T13:18:27;29.97;;;16.20;;
5026;SDS011;2532;52.480;13.354;2024-03-22T13:20:54;28.50;;;16.40;;
5026;SDS011;2532;52.480;13.354;2024-03-22T13:23:20;23.83;;;14.57;;
5026;SDS011;2532;52.480;13.354;2024-03-22T13:25:48;25.60;;;15.53;;
5026;SDS011;2532;52.480;13.354;2024-03-22T13:28:14;24.03;;;14.83;;
5026;SDS011;2532;52.480;13.354;2024-03-22T13:31:00;24.07;;;13.60;;
5026;SDS011;2532;52.480;13.354;2024-03-22T13:33:28;24.27;;;13.40;;
5026;SDS011;2532;52.480;13.354;2024-03-22T13:35:57;19.93;;;13.07;;
5026;SDS011;2532;52.480;13.354;2024-03-22T13:38:26;20.63;;;12.37;;
5026;SDS011;2532;52.480;13.354;2024-03-22T13:40:54;19.43;;;11.70;;
5026;SDS011;2532;52.480;13.354;2024-03-22T13:43:30;25.93;;;12.83;;
5026;SDS011;2532;52.480;13.354;2024-03-22T13:46:05;18.37;;;11.70;;
5026;SDS011;2532;52.480;13.354;2024-03-22T13:48:37;19.30;;;12.40;;
5026;SDS011;2532;52.480;13.354;2024-03-22T13:51:04;21.40;;;13.00;;
5026;SDS011;2532;52.480;13.354;2024-03-22T13:53:31;23.00;;;12.80;;
5026;SDS011;2532;52.480;13.354;2024-03-22T13:55:59;19.60;;;12.73;;
5026;SDS011;2532;52.480;13.354;2024-03-22T13:58:26;27.33;;;14.27;;
5026;SDS011;2532;52.480;13.354;2024-03-22T14:00:53;20.67;;;13.60;;
5026;SDS011;2532;52.480;13.354;2024-03-22T14:03:24;31.57;;;15.67;;
5026;SDS011;2532;52.480;13.354;2024-03-22T14:05:51;25.03;;;15.93;;
5026;SDS011;2532;52.480;13.354;2024-03-22T14:08:18;25.37;;;16.03;;
5026;SDS011;2532;52.480;13.354;2024-03-22T14:10:45;28.47;;;16.03;;
5026;SDS011;2532;52.480;13.354;2024-03-22T14:13:11;27.57;;;16.67;;
5026;SDS011;2532;52.480;13.354;2024-03-22T14:15:40;31.07;;;18.07;;
5026;SDS011;2532;52.480;13.354;2024-03-22T14:18:09;31.07;;;16.93;;
5026;SDS011;2532;52.480;13.354;2024-03-22T14:20:38;30.50;;;17.80;;
5026;SDS011;2532;52.480;13.354;2024-03-22T14:23:04;26.80;;;16.80;;
5026;SDS011;2532;52.480;13.354;2024-03-22T14:25:32;31.93;;;18.87;;
5026;SDS011;2532;52.480;13.354;2024-03-22T14:28:01;31.90;;;19.30;;
5026;SDS011;2532;52.480;13.354;2024-03-22T14:30:28;32.13;;;18.10;;
5026;SDS011;2532;52.480;13.354;2024-03-22T14:32:54;31.93;;;17.80;;
5026;SDS011;2532;52.480;13.354;2024-03-22T14:35:24;32.43;;;18.70;;